sensor_id;sensor_type;location;lat;lon;timestamp;pressure;altitude;pressure_sealevel;temperature;humidity
60087;BME280;45960;53.630;55.972;2023-04-28T00:00:22;99834.56;;;11.48;53.15
60087;BME280;45960;53.630;55.972;2023-04-28T00:01:23;99837.25;;;11.48;53.21
60087;BME280;45960;53.630;55.972;2023-04-28T00:02:24;99838.22;;;11.47;53.29
60087;BME280;45960;53.630;55.972;2023-04-28T00:03:26;99836.72;;;11.42;53.27
60087;BME280;45960;53.630;55.972;2023-04-28T00:04:27;99840.38;;;11.41;53.45
60087;BME280;45960;53.630;55.972;2023-04-28T00:05:28;99838.69;;;11.40;53.40
60087;BME280;45960;53.630;55.972;2023-04-28T00:06:30;99836.97;;;11.39;53.40
60087;BME280;45960;53.630;55.972;2023-04-28T00:07:31;99836.97;;;11.39;53.40
60087;BME280;45960;53.630;55.972;2023-04-28T00:08:32;99845.97;;;11.38;53.42
60087;BME280;45960;53.630;55.972;2023-04-28T00:09:33;99842.56;;;11.36;53.64
60087;BME280;45960;53.630;55.972;2023-04-28T00:10:34;99845.34;;;11.35;53.59
60087;BME280;45960;53.630;55.972;2023-04-28T00:11:38;99848.13;;;11.33;53.72
60087;BME280;45960;53.630;55.972;2023-04-28T00:12:39;99856.16;;;11.33;53.73
60087;BME280;45960;53.630;55.972;2023-04-28T00:13:40;99855.41;;;11.31;53.91
60087;BME280;45960;53.630;55.972;2023-04-28T00:14:41;99855.41;;;11.31;53.57
60087;BME280;45960;53.630;55.972;2023-04-28T00:15:42;99851.03;;;11.30;53.86
60087;BME280;45960;53.630;55.972;2023-04-28T00:16:43;99853.72;;;11.30;53.90
60087;BME280;45960;53.630;55.972;2023-04-28T00:17:44;99850.28;;;11.28;53.77
60087;BME280;45960;53.630;55.972;2023-04-28T00:18:45;99849.56;;;11.26;53.51
60087;BME280;45960;53.630;55.972;2023-04-28T00:19:46;99841.78;;;11.23;53.94
60087;BME280;45960;53.630;55.972;2023-04-28T00:20:49;99846.25;;;11.23;53.83
60087;BME280;45960;53.630;55.972;2023-04-28T00:21:50;99849.06;;;11.21;53.83
60087;BME280;45960;53.630;55.972;2023-04-28T00:22:51;99850.00;;;11.20;54.10
60087;BME280;45960;53.630;55.972;2023-04-28T00:23:52;99855.34;;;11.20;54.00
60087;BME280;45960;53.630;55.972;2023-04-28T00:24:53;99851.00;;;11.19;53.88
60087;BME280;45960;53.630;55.972;2023-04-28T00:25:54;99851.84;;;11.19;54.16
60087;BME280;45960;53.630;55.972;2023-04-28T00:26:57;99854.66;;;11.18;53.78
60087;BME280;45960;53.630;55.972;2023-04-28T00:27:58;99849.28;;;11.18;54.07
60087;BME280;45960;53.630;55.972;2023-04-28T00:28:59;99852.91;;;11.17;53.96
60087;BME280;45960;53.630;55.972;2023-04-28T00:30:00;99849.41;;;11.16;53.85
60087;BME280;45960;53.630;55.972;2023-04-28T00:31:10;99845.25;;;11.12;53.97
60087;BME280;45960;53.630;55.972;2023-04-28T00:32:12;99843.53;;;11.11;54.14
60087;BME280;45960;53.630;55.972;2023-04-28T00:33:13;99836.09;;;11.04;54.01
60087;BME280;45960;53.630;55.972;2023-04-28T00:34:14;99853.59;;;11.08;53.88
60087;BME280;45960;53.630;55.972;2023-04-28T00:35:15;99847.41;;;11.07;54.00
60087;BME280;45960;53.630;55.972;2023-04-28T00:36:16;99851.91;;;11.07;54.09
60087;BME280;45960;53.630;55.972;2023-04-28T00:37:18;99853.84;;;11.05;54.31
60087;BME280;45960;53.630;55.972;2023-04-28T00:38:19;99852.16;;;11.04;54.20
60087;BME280;45960;53.630;55.972;2023-04-28T00:39:20;99853.09;;;11.03;54.32
60087;BME280;45960;53.630;55.972;2023-04-28T00:40:23;99849.56;;;11.02;54.36
60087;BME280;45960;53.630;55.972;2023-04-28T00:41:33;99854.06;;;11.02;54.35
60087;BME280;45960;53.630;55.972;2023-04-28T00:42:34;99847.88;;;11.01;54.30
60087;BME280;45960;53.630;55.972;2023-04-28T00:43:46;99847.00;;;11.01;54.42
60087;BME280;45960;53.630;55.972;2023-04-28T00:44:47;99851.50;;;11.00;54.58
60087;BME280;45960;53.630;55.972;2023-04-28T00:45:51;99855.00;;;11.01;54.62
60087;BME280;45960;53.630;55.972;2023-04-28T00:46:52;99840.41;;;10.93;54.52
60087;BME280;45960;53.630;55.972;2023-04-28T00:47:54;99845.53;;;10.96;54.52
60087;BME280;45960;53.630;55.972;2023-04-28T00:48:56;99855.16;;;10.99;54.71
60087;BME280;45960;53.630;55.972;2023-04-28T00:49:58;99852.81;;;10.94;54.51
60087;BME280;45960;53.630;55.972;2023-04-28T00:51:01;99850.97;;;10.95;54.37
60087;BME280;45960;53.630;55.972;2023-04-28T00:52:04;99854.53;;;10.95;54.49
60087;BME280;45960;53.630;55.972;2023-04-28T00:53:05;99852.81;;;10.94;54.60
60087;BME280;45960;53.630;55.972;2023-04-28T00:54:07;99851.09;;;10.93;54.63
60087;BME280;45960;53.630;55.972;2023-04-28T00:55:09;99854.94;;;10.89;54.64
60087;BME280;45960;53.630;55.972;2023-04-28T00:56:10;99846.84;;;10.91;54.52
60087;BME280;45960;53.630;55.972;2023-04-28T00:57:12;99853.03;;;10.91;54.48
60087;BME280;45960;53.630;55.972;2023-04-28T00:58:13;99850.72;;;10.87;54.44
60087;BME280;45960;53.630;55.972;2023-04-28T00:59:14;99853.03;;;10.91;54.19
60087;BME280;45960;53.630;55.972;2023-04-28T01:00:15;99852.09;;;10.92;54.24
60087;BME280;45960;53.630;55.972;2023-04-28T01:01:17;99854.75;;;10.92;54.12
60087;BME280;45960;53.630;55.972;2023-04-28T01:02:19;99849.41;;;10.92;53.95
60087;BME280;45960;53.630;55.972;2023-04-28T01:03:20;99844.06;;;10.92;54.05
60087;BME280;45960;53.630;55.972;2023-04-28T01:04:21;99849.41;;;10.92;54.50
60087;BME280;45960;53.630;55.972;2023-04-28T01:05:24;99857.31;;;10.94;54.32
60087;BME280;45960;53.630;55.972;2023-04-28T01:06:27;99845.16;;;10.90;54.39
60087;BME280;45960;53.630;55.972;2023-04-28T01:07:31;99848.44;;;10.93;54.64
60087;BME280;45960;53.630;55.972;2023-04-28T01:08:34;99857.31;;;10.94;54.09
60087;BME280;45960;53.630;55.972;2023-04-28T01:09:36;99856.44;;;10.93;54.15
60087;BME280;45960;53.630;55.972;2023-04-28T01:10:42;99839.03;;;10.88;54.44
60087;BME280;45960;53.630;55.972;2023-04-28T01:11:48;99861.78;;;10.93;54.21
60087;BME280;45960;53.630;55.972;2023-04-28T01:13:06;99856.69;;;10.90;54.35
60087;BME280;45960;53.630;55.972;2023-04-28T01:14:07;99856.69;;;10.90;54.27
60087;BME280;45960;53.630;55.972;2023-04-28T01:15:16;99862.03;;;10.90;54.24
60087;BME280;45960;53.630;55.972;2023-04-28T01:16:19;99862.97;;;10.89;54.56
60087;BME280;45960;53.630;55.972;2023-04-28T01:17:20;99866.53;;;10.90;54.65
60087;BME280;45960;53.630;55.972;2023-04-28T01:18:22;99861.03;;;10.91;54.57
60087;BME280;45960;53.630;55.972;2023-04-28T01:19:23;99865.66;;;10.89;54.60
60087;BME280;45960;53.630;55.972;2023-04-28T01:20:25;99857.75;;;10.88;54.75
60087;BME280;45960;53.630;55.972;2023-04-28T01:21:27;99863.72;;;10.91;54.73
60087;BME280;45960;53.630;55.972;2023-04-28T01:22:30;99869.06;;;10.91;54.59
60087;BME280;45960;53.630;55.972;2023-04-28T01:23:31;99874.41;;;10.91;54.90
60087;BME280;45960;53.630;55.972;2023-04-28T01:24:33;99874.31;;;10.93;54.64
60087;BME280;45960;53.630;55.972;2023-04-28T01:25:38;99868.13;;;10.92;54.74
60087;BME280;45960;53.630;55.972;2023-04-28T01:26:39;99872.50;;;10.93;54.75
60087;BME280;45960;53.630;55.972;2023-04-28T01:27:40;99861.78;;;10.93;54.74
60087;BME280;45960;53.630;55.972;2023-04-28T01:28:41;99872.50;;;10.93;55.04
60087;BME280;45960;53.630;55.972;2023-04-28T01:29:42;99871.66;;;10.93;55.08
60087;BME280;45960;53.630;55.972;2023-04-28T01:30:43;99868.84;;;10.94;54.93
60087;BME280;45960;53.630;55.972;2023-04-28T01:31:44;99873.34;;;10.94;54.73
60087;BME280;45960;53.630;55.972;2023-04-28T01:32:45;99871.41;;;10.96;54.61
60087;BME280;45960;53.630;55.972;2023-04-28T01:33:46;99873.97;;;10.97;54.47
60087;BME280;45960;53.630;55.972;2023-04-28T01:34:47;99869.34;;;11.00;54.59
60087;BME280;45960;53.630;55.972;2023-04-28T01:35:48;99873.72;;;11.01;54.34
60087;BME280;45960;53.630;55.972;2023-04-28T01:36:50;99869.25;;;11.01;54.23
60087;BME280;45960;53.630;55.972;2023-04-28T01:37:51;99872.78;;;11.02;54.31
60087;BME280;45960;53.630;55.972;2023-04-28T01:38:53;99871.81;;;11.03;54.36
60087;BME280;45960;53.630;55.972;2023-04-28T01:39:54;99864.00;;;11.00;54.52
60087;BME280;45960;53.630;55.972;2023-04-28T01:40:55;99868.19;;;11.04;54.43
60087;BME280;45960;53.630;55.972;2023-04-28T01:41:58;99869.88;;;11.05;54.46
60087;BME280;45960;53.630;55.972;2023-04-28T01:43:00;99876.94;;;11.06;54.31
60087;BME280;45960;53.630;55.972;2023-04-28T01:44:03;99875.00;;;11.08;54.64
60087;BME280;45960;53.630;55.972;2023-04-28T01:45:07;99874.03;;;11.09;54.53
60087;BME280;45960;53.630;55.972;2023-04-28T01:46:09;99878.41;;;11.10;54.38
60087;BME280;45960;53.630;55.972;2023-04-28T01:47:10;99878.41;;;11.10;54.54
60087;BME280;45960;53.630;55.972;2023-04-28T01:48:11;99883.78;;;11.10;54.52
60087;BME280;45960;53.630;55.972;2023-04-28T01:49:12;99881.84;;;11.12;54.51
60087;BME280;45960;53.630;55.972;2023-04-28T01:50:14;99886.97;;;11.15;54.23
60087;BME280;45960;53.630;55.972;2023-04-28T01:51:15;99885.00;;;11.17;54.46
60087;BME280;45960;53.630;55.972;2023-04-28T01:52:16;99883.09;;;11.19;54.33
60087;BME280;45960;53.630;55.972;2023-04-28T01:53:19;99885.53;;;11.22;54.41
60087;BME280;45960;53.630;55.972;2023-04-28T01:54:21;99884.56;;;11.23;54.49
60087;BME280;45960;53.630;55.972;2023-04-28T01:55:23;99883.47;;;11.26;54.46
60087;BME280;45960;53.630;55.972;2023-04-28T01:56:24;99886.03;;;11.27;54.54
60087;BME280;45960;53.630;55.972;2023-04-28T01:57:27;99884.97;;;11.30;54.58
60087;BME280;45960;53.630;55.972;2023-04-28T01:58:31;99892.84;;;11.31;54.62
60087;BME280;45960;53.630;55.972;2023-04-28T01:59:32;99889.97;;;11.34;54.63
60087;BME280;45960;53.630;55.972;2023-04-28T02:00:33;99900.31;;;11.39;54.53
60087;BME280;45960;53.630;55.972;2023-04-28T02:01:34;99890.47;;;11.39;54.43
60087;BME280;45960;53.630;55.972;2023-04-28T02:02:35;99896.47;;;11.43;54.49
60087;BME280;45960;53.630;55.972;2023-04-28T02:03:36;99895.38;;;11.46;54.28
60087;BME280;45960;53.630;55.972;2023-04-28T02:04:38;99899.50;;;11.50;54.49
60087;BME280;45960;53.630;55.972;2023-04-28T02:05:39;99900.25;;;11.52;54.35
60087;BME280;45960;53.630;55.972;2023-04-28T02:06:40;99891.03;;;11.56;54.47
60087;BME280;45960;53.630;55.972;2023-04-28T02:07:41;99898.81;;;11.59;54.39
60087;BME280;45960;53.630;55.972;2023-04-28T02:08:42;99899.56;;;11.61;54.33
60087;BME280;45960;53.630;55.972;2023-04-28T02:09:46;99895.91;;;11.62;54.29
60087;BME280;45960;53.630;55.972;2023-04-28T02:10:47;99911.94;;;11.62;54.20
60087;BME280;45960;53.630;55.972;2023-04-28T02:11:49;99902.97;;;11.63;54.25
60087;BME280;45960;53.630;55.972;2023-04-28T02:12:50;99901.91;;;11.65;54.23
60087;BME280;45960;53.630;55.972;2023-04-28T02:13:51;99907.88;;;11.69;54.09
60087;BME280;45960;53.630;55.972;2023-04-28T02:15:12;99915.38;;;11.64;54.17
60087;BME280;45960;53.630;55.972;2023-04-28T02:16:13;99912.38;;;11.69;53.91
60087;BME280;45960;53.630;55.972;2023-04-28T02:17:16;99907.38;;;11.75;54.00
60087;BME280;45960;53.630;55.972;2023-04-28T02:18:17;99907.91;;;11.80;53.68
60087;BME280;45960;53.630;55.972;2023-04-28T02:19:18;99908.44;;;11.85;53.98
60087;BME280;45960;53.630;55.972;2023-04-28T02:20:19;99907.22;;;11.90;53.92
60087;BME280;45960;53.630;55.972;2023-04-28T02:21:20;99909.56;;;11.94;53.76
60087;BME280;45960;53.630;55.972;2023-04-28T02:22:22;99912.84;;;11.98;53.60
60087;BME280;45960;53.630;55.972;2023-04-28T02:23:23;99915.28;;;12.01;53.49
60087;BME280;45960;53.630;55.972;2023-04-28T02:24:24;99913.25;;;12.04;53.44
60087;BME280;45960;53.630;55.972;2023-04-28T02:25:25;99919.19;;;12.08;53.66
60087;BME280;45960;53.630;55.972;2023-04-28T02:26:26;99908.25;;;12.11;53.39
60087;BME280;45960;53.630;55.972;2023-04-28T02:27:27;99912.38;;;12.15;53.53
60087;BME280;45960;53.630;55.972;2023-04-28T02:28:29;99912.28;;;12.17;53.27
60087;BME280;45960;53.630;55.972;2023-04-28T02:29:31;99911.19;;;12.19;53.25
60087;BME280;45960;53.630;55.972;2023-04-28T02:30:32;99918.00;;;12.23;52.93
60087;BME280;45960;53.630;55.972;2023-04-28T02:31:33;99908.75;;;12.27;53.09
60087;BME280;45960;53.630;55.972;2023-04-28T02:32:34;99912.03;;;12.31;53.04
60087;BME280;45960;53.630;55.972;2023-04-28T02:33:36;99904.63;;;12.35;53.03
60087;BME280;45960;53.630;55.972;2023-04-28T02:34:38;99913.41;;;12.37;53.04
60087;BME280;45960;53.630;55.972;2023-04-28T02:35:39;99916.69;;;12.40;53.01
60087;BME280;45960;53.630;55.972;2023-04-28T02:36:40;99914.63;;;12.44;52.93
60087;BME280;45960;53.630;55.972;2023-04-28T02:37:41;99918.03;;;12.46;53.10
60087;BME280;45960;53.630;55.972;2023-04-28T02:38:42;99903.16;;;12.42;53.05
60087;BME280;45960;53.630;55.972;2023-04-28T02:39:45;99920.94;;;12.54;53.12
60087;BME280;45960;53.630;55.972;2023-04-28T02:40:46;99922.44;;;12.58;52.82
60087;BME280;45960;53.630;55.972;2023-04-28T02:41:47;99921.19;;;12.62;52.73
60087;BME280;45960;53.630;55.972;2023-04-28T02:42:48;99923.63;;;12.65;52.99
60087;BME280;45960;53.630;55.972;2023-04-28T02:43:49;99923.28;;;12.70;52.76
60087;BME280;45960;53.630;55.972;2023-04-28T02:44:51;99921.19;;;12.73;52.55
60087;BME280;45960;53.630;55.972;2023-04-28T02:45:53;99922.91;;;12.74;52.47
60087;BME280;45960;53.630;55.972;2023-04-28T02:46:54;99922.41;;;12.81;52.16
60087;BME280;45960;53.630;55.972;2023-04-28T02:47:55;99922.16;;;12.84;52.02
60087;BME280;45960;53.630;55.972;2023-04-28T02:48:56;99927.28;;;12.87;52.16
60087;BME280;45960;53.630;55.972;2023-04-28T02:49:57;99929.59;;;12.91;51.92
60087;BME280;45960;53.630;55.972;2023-04-28T02:50:59;99926.78;;;12.93;52.01
60087;BME280;45960;53.630;55.972;2023-04-28T02:52:00;99929.94;;;12.98;51.81
60087;BME280;45960;53.630;55.972;2023-04-28T02:53:01;99928.72;;;13.02;51.62
60087;BME280;45960;53.630;55.972;2023-04-28T02:54:02;99937.38;;;13.06;51.56
60087;BME280;45960;53.630;55.972;2023-04-28T02:55:04;99936.03;;;13.11;51.45
60087;BME280;45960;53.630;55.972;2023-04-28T02:56:05;99936.63;;;13.15;51.43
60087;BME280;45960;53.630;55.972;2023-04-28T02:57:07;99937.22;;;13.18;51.28
60087;BME280;45960;53.630;55.972;2023-04-28T02:58:08;99938.69;;;13.23;51.08
60087;BME280;45960;53.630;55.972;2023-04-28T02:59:09;99933.09;;;13.26;51.11
60087;BME280;45960;53.630;55.972;2023-04-28T03:00:11;99938.22;;;13.29;51.09
60087;BME280;45960;53.630;55.972;2023-04-28T03:01:19;99940.38;;;13.35;50.76
60087;BME280;45960;53.630;55.972;2023-04-28T03:02:20;99943.56;;;13.40;50.49
60087;BME280;45960;53.630;55.972;2023-04-28T03:03:22;99945.00;;;13.44;50.50
60087;BME280;45960;53.630;55.972;2023-04-28T03:04:23;99940.09;;;13.49;50.19
60087;BME280;45960;53.630;55.972;2023-04-28T03:05:24;99950.31;;;13.55;50.28
60087;BME280;45960;53.630;55.972;2023-04-28T03:06:26;99948.13;;;13.60;50.11
60087;BME280;45960;53.630;55.972;2023-04-28T03:07:27;99942.22;;;13.66;50.13
60087;BME280;45960;53.630;55.972;2023-04-28T03:08:28;99940.00;;;13.72;50.12
60087;BME280;45960;53.630;55.972;2023-04-28T03:09:30;99934.38;;;13.75;49.87
60087;BME280;45960;53.630;55.972;2023-04-28T03:10:32;99944.63;;;13.81;49.71
60087;BME280;45960;53.630;55.972;2023-04-28T03:11:34;99945.94;;;13.86;49.54
60087;BME280;45960;53.630;55.972;2023-04-28T03:12:37;99941.91;;;13.92;49.59
60087;BME280;45960;53.630;55.972;2023-04-28T03:13:39;99946.47;;;14.01;49.40
60087;BME280;45960;53.630;55.972;2023-04-28T03:14:41;99940.56;;;14.07;48.96
60087;BME280;45960;53.630;55.972;2023-04-28T03:15:42;99941.78;;;14.15;48.99
60087;BME280;45960;53.630;55.972;2023-04-28T03:16:43;99946.03;;;14.17;48.94
60087;BME280;45960;53.630;55.972;2023-04-28T03:17:44;99944.88;;;14.20;48.72
60087;BME280;45960;53.630;55.972;2023-04-28T03:18:45;99948.03;;;14.25;48.86
60087;BME280;45960;53.630;55.972;2023-04-28T03:19:46;99940.44;;;14.30;48.79
60087;BME280;45960;53.630;55.972;2023-04-28T03:20:48;99940.91;;;14.35;48.65
60087;BME280;45960;53.630;55.972;2023-04-28T03:21:49;99941.34;;;14.40;48.72
60087;BME280;45960;53.630;55.972;2023-04-28T03:22:50;99948.72;;;14.48;48.56
60087;BME280;45960;53.630;55.972;2023-04-28T03:23:52;99939.31;;;14.53;48.59
60087;BME280;45960;53.630;55.972;2023-04-28T03:24:53;99943.47;;;14.58;48.58
60087;BME280;45960;53.630;55.972;2023-04-28T03:25:54;99941.22;;;14.63;48.50
60087;BME280;45960;53.630;55.972;2023-04-28T03:26:55;99933.63;;;14.68;48.40
60087;BME280;45960;53.630;55.972;2023-04-28T03:27:57;99938.44;;;14.74;48.35
60087;BME280;45960;53.630;55.972;2023-04-28T03:28:58;99932.78;;;14.77;48.31
60087;BME280;45960;53.630;55.972;2023-04-28T03:29:59;99941.03;;;14.85;48.23
60087;BME280;45960;53.630;55.972;2023-04-28T03:31:00;99939.63;;;14.91;47.90
60087;BME280;45960;53.630;55.972;2023-04-28T03:32:02;99935.69;;;14.95;48.10
60087;BME280;45960;53.630;55.972;2023-04-28T03:33:03;99936.97;;;15.00;48.12
60087;BME280;45960;53.630;55.972;2023-04-28T03:34:04;99931.75;;;15.09;47.96
60087;BME280;45960;53.630;55.972;2023-04-28T03:35:05;99943.81;;;15.14;47.45
60087;BME280;45960;53.630;55.972;2023-04-28T03:36:07;99944.25;;;15.19;47.49
60087;BME280;45960;53.630;55.972;2023-04-28T03:37:08;99945.69;;;15.24;47.33
60087;BME280;45960;53.630;55.972;2023-04-28T03:38:09;99945.69;;;15.33;47.10
60087;BME280;45960;53.630;55.972;2023-04-28T03:39:10;99941.47;;;15.40;47.10
60087;BME280;45960;53.630;55.972;2023-04-28T03:40:11;99945.16;;;15.49;46.93
60087;BME280;45960;53.630;55.972;2023-04-28T03:41:45;99942.03;;;15.54;46.66
60087;BME280;45960;53.630;55.972;2023-04-28T03:43:06;99945.72;;;15.62;46.60
60087;BME280;45960;53.630;55.972;2023-04-28T03:44:11;99945.22;;;15.69;46.16
60087;BME280;45960;53.630;55.972;2023-04-28T03:45:20;99945.50;;;15.75;46.14
60087;BME280;45960;53.630;55.972;2023-04-28T03:46:21;99946.06;;;15.79;45.87
60087;BME280;45960;53.630;55.972;2023-04-28T03:47:23;99941.94;;;15.84;45.66
60087;BME280;45960;53.630;55.972;2023-04-28T03:48:24;99942.38;;;15.89;45.59
60087;BME280;45960;53.630;55.972;2023-04-28T03:49:25;99936.41;;;15.96;45.68
60087;BME280;45960;53.630;55.972;2023-04-28T03:50:26;99940.38;;;16.01;45.59
60087;BME280;45960;53.630;55.972;2023-04-28T03:51:29;99943.34;;;16.08;45.74
60087;BME280;45960;53.630;55.972;2023-04-28T03:52:30;99948.16;;;16.14;45.52
60087;BME280;45960;53.630;55.972;2023-04-28T03:53:32;99943.19;;;16.19;45.42
60087;BME280;45960;53.630;55.972;2023-04-28T03:54:33;99941.47;;;16.28;45.46
60087;BME280;45960;53.630;55.972;2023-04-28T03:55:34;99936.34;;;16.34;45.16
60087;BME280;45960;53.630;55.972;2023-04-28T03:56:36;99940.19;;;16.42;44.91
60087;BME280;45960;53.630;55.972;2023-04-28T03:57:38;99946.66;;;16.49;45.05
60087;BME280;45960;53.630;55.972;2023-04-28T03:58:39;99942.41;;;16.56;44.95
60087;BME280;45960;53.630;55.972;2023-04-28T03:59:41;99944.50;;;16.62;44.73
60087;BME280;45960;53.630;55.972;2023-04-28T04:00:44;99936.81;;;16.67;44.24
60087;BME280;45960;53.630;55.972;2023-04-28T04:01:45;99938.78;;;16.75;44.06
60087;BME280;45960;53.630;55.972;2023-04-28T04:02:46;99936.50;;;16.80;44.02
60087;BME280;45960;53.630;55.972;2023-04-28T04:03:47;99942.19;;;16.87;44.13
60087;BME280;45960;53.630;55.972;2023-04-28T04:04:48;99945.97;;;16.94;44.04
60087;BME280;45960;53.630;55.972;2023-04-28T04:05:49;99935.56;;;16.99;44.06
60087;BME280;45960;53.630;55.972;2023-04-28T04:06:51;99940.38;;;17.05;43.70
60087;BME280;45960;53.630;55.972;2023-04-28T04:07:52;99947.88;;;17.11;43.46
60087;BME280;45960;53.630;55.972;2023-04-28T04:08:53;99942.84;;;17.16;43.35
60087;BME280;45960;53.630;55.972;2023-04-28T04:09:55;99942.28;;;17.22;43.52
60087;BME280;45960;53.630;55.972;2023-04-28T04:10:56;99939.09;;;17.27;43.43
60087;BME280;45960;53.630;55.972;2023-04-28T04:11:57;99947.16;;;17.37;43.23
60087;BME280;45960;53.630;55.972;2023-04-28T04:12:58;99948.09;;;17.45;43.28
60087;BME280;45960;53.630;55.972;2023-04-28T04:14:00;99945.63;;;17.52;43.01
60087;BME280;45960;53.630;55.972;2023-04-28T04:15:01;99937.59;;;17.60;42.73
60087;BME280;45960;53.630;55.972;2023-04-28T04:16:04;99945.09;;;17.66;42.65
60087;BME280;45960;53.630;55.972;2023-04-28T04:17:05;99943.31;;;17.75;42.26
60087;BME280;45960;53.630;55.972;2023-04-28T04:18:06;99946.97;;;17.84;41.93
60087;BME280;45960;53.630;55.972;2023-04-28T04:19:27;99950.06;;;17.89;41.92
60087;BME280;45960;53.630;55.972;2023-04-28T04:20:29;99947.44;;;17.97;41.72
60087;BME280;45960;53.630;55.972;2023-04-28T04:21:31;99950.22;;;18.05;41.68
60087;BME280;45960;53.630;55.972;2023-04-28T04:22:32;99916.84;;;17.97;41.92
60087;BME280;45960;53.630;55.972;2023-04-28T04:23:33;99946.63;;;18.23;41.83
60087;BME280;45960;53.630;55.972;2023-04-28T04:24:35;99946.38;;;18.34;41.88
60087;BME280;45960;53.630;55.972;2023-04-28T04:25:36;99945.56;;;18.42;41.61
60087;BME280;45960;53.630;55.972;2023-04-28T04:26:38;99938.34;;;18.50;41.31
60087;BME280;45960;53.630;55.972;2023-04-28T04:27:53;99939.44;;;18.58;41.27
60087;BME280;45960;53.630;55.972;2023-04-28T04:28:55;99941.03;;;18.68;41.01
60087;BME280;45960;53.630;55.972;2023-04-28T04:29:56;99943.63;;;18.78;40.92
60087;BME280;45960;53.630;55.972;2023-04-28T04:30:58;99938.25;;;18.86;40.77
60087;BME280;45960;53.630;55.972;2023-04-28T04:31:59;99935.59;;;18.94;40.47
60087;BME280;45960;53.630;55.972;2023-04-28T04:33:00;99938.34;;;19.03;40.16
60087;BME280;45960;53.630;55.972;2023-04-28T04:34:01;99950.03;;;19.11;39.89
60087;BME280;45960;53.630;55.972;2023-04-28T04:35:02;99944.81;;;19.18;39.73
60087;BME280;45960;53.630;55.972;2023-04-28T04:36:04;99938.91;;;19.22;39.49
60087;BME280;45960;53.630;55.972;2023-04-28T04:37:05;99943.88;;;19.35;39.39
60087;BME280;45960;53.630;55.972;2023-04-28T04:38:08;99942.03;;;19.44;39.17
60087;BME280;45960;53.630;55.972;2023-04-28T04:39:09;99936.78;;;19.51;39.58
60087;BME280;45960;53.630;55.972;2023-04-28T04:40:10;99940.88;;;19.63;38.80
60087;BME280;45960;53.630;55.972;2023-04-28T04:41:18;99939.38;;;19.68;38.34
60087;BME280;45960;53.630;55.972;2023-04-28T04:42:26;99942.63;;;19.80;37.67
60087;BME280;45960;53.630;55.972;2023-04-28T04:43:50;99949.91;;;19.88;37.29
60087;BME280;45960;53.630;55.972;2023-04-28T04:44:51;99948.72;;;19.99;36.99
60087;BME280;45960;53.630;55.972;2023-04-28T04:46:00;99942.13;;;20.09;36.91
60087;BME280;45960;53.630;55.972;2023-04-28T04:47:03;99945.69;;;20.18;36.62
60087;BME280;45960;53.630;55.972;2023-04-28T04:48:06;99951.78;;;20.28;36.46
60087;BME280;45960;53.630;55.972;2023-04-28T04:49:07;99948.03;;;20.38;36.00
60087;BME280;45960;53.630;55.972;2023-04-28T04:50:10;99948.03;;;20.46;35.83
60087;BME280;45960;53.630;55.972;2023-04-28T04:51:11;99955.16;;;20.55;35.61
60087;BME280;45960;53.630;55.972;2023-04-28T04:52:12;99955.16;;;20.63;35.61
60087;BME280;45960;53.630;55.972;2023-04-28T04:53:13;99952.41;;;20.71;35.39
60087;BME280;45960;53.630;55.972;2023-04-28T04:54:15;99953.44;;;20.78;35.20
60087;BME280;45960;53.630;55.972;2023-04-28T04:55:17;99956.13;;;20.87;35.18
60087;BME280;45960;53.630;55.972;2023-04-28T04:56:18;99910.16;;;20.69;35.11
60087;BME280;45960;53.630;55.972;2023-04-28T04:57:19;99947.88;;;21.03;34.76
60087;BME280;45960;53.630;55.972;2023-04-28T04:58:42;99958.72;;;21.11;34.57
60087;BME280;45960;53.630;55.972;2023-04-28T05:00:01;99955.13;;;21.19;34.53
60087;BME280;45960;53.630;55.972;2023-04-28T05:01:06;99953.22;;;21.28;34.52
60087;BME280;45960;53.630;55.972;2023-04-28T05:02:07;99954.72;;;21.38;34.34
60087;BME280;45960;53.630;55.972;2023-04-28T05:03:08;99958.25;;;21.47;34.09
60087;BME280;45960;53.630;55.972;2023-04-28T05:04:09;99950.03;;;21.55;33.71
60087;BME280;45960;53.630;55.972;2023-04-28T05:05:10;99954.75;;;21.61;33.65
60087;BME280;45960;53.630;55.972;2023-04-28T05:06:12;99956.41;;;21.71;33.75
60087;BME280;45960;53.630;55.972;2023-04-28T05:07:22;99954.66;;;21.78;33.58
60087;BME280;45960;53.630;55.972;2023-04-28T05:08:23;99955.28;;;21.88;33.35
60087;BME280;45960;53.630;55.972;2023-04-28T05:09:24;99950.78;;;21.95;33.03
60087;BME280;45960;53.630;55.972;2023-04-28T05:10:25;99953.44;;;22.03;32.93
60087;BME280;45960;53.630;55.972;2023-04-28T05:11:29;99954.03;;;22.13;33.21
60087;BME280;45960;53.630;55.972;2023-04-28T05:12:30;99960.13;;;22.24;32.95
60087;BME280;45960;53.630;55.972;2023-04-28T05:13:31;99965.13;;;22.35;32.86
60087;BME280;45960;53.630;55.972;2023-04-28T05:14:35;99947.38;;;22.39;32.67
60087;BME280;45960;53.630;55.972;2023-04-28T05:15:36;99955.56;;;22.54;32.34
60087;BME280;45960;53.630;55.972;2023-04-28T05:17:04;99951.53;;;22.65;32.27
60087;BME280;45960;53.630;55.972;2023-04-28T05:18:10;99948.34;;;22.76;32.50
60087;BME280;45960;53.630;55.972;2023-04-28T05:19:13;99950.63;;;22.87;32.31
60087;BME280;45960;53.630;55.972;2023-04-28T05:20:15;99951.88;;;22.99;32.13
60087;BME280;45960;53.630;55.972;2023-04-28T05:21:16;99944.25;;;23.10;31.77
60087;BME280;45960;53.630;55.972;2023-04-28T05:22:17;99954.00;;;23.19;31.55
60087;BME280;45960;53.630;55.972;2023-04-28T05:23:18;99947.44;;;23.28;31.26
60087;BME280;45960;53.630;55.972;2023-04-28T05:24:22;99940.81;;;23.37;30.98
60087;BME280;45960;53.630;55.972;2023-04-28T05:25:25;99945.50;;;23.43;30.83
60087;BME280;45960;53.630;55.972;2023-04-28T05:26:26;99951.88;;;23.51;30.77